createdAt,value
2023-05-06T00:01:26.528Z,9.27
2023-05-06T00:03:53.598Z,9.18
2023-05-06T00:06:21.235Z,9.93
2023-05-06T00:08:48.248Z,8.93
2023-05-06T00:11:17.554Z,8.77
2023-05-06T00:13:44.889Z,9.50
2023-05-06T00:16:13.619Z,9.27
2023-05-06T00:18:42.094Z,9.60
2023-05-06T00:21:09.750Z,10.07
2023-05-06T00:23:36.760Z,10.15
2023-05-06T00:26:03.645Z,9.43
2023-05-06T00:28:30.536Z,10.00
2023-05-06T00:30:57.544Z,9.98
2023-05-06T00:33:24.368Z,8.95
2023-05-06T00:35:52.369Z,9.73
2023-05-06T00:38:19.794Z,10.05
2023-05-06T00:40:46.782Z,9.63
2023-05-06T00:43:13.874Z,10.15
2023-05-06T00:45:41.184Z,10.30
2023-05-06T00:48:08.468Z,10.15
2023-05-06T00:50:35.804Z,10.02
2023-05-06T00:53:04.113Z,10.13
2023-05-06T00:55:31.649Z,10.40
2023-05-06T00:57:58.532Z,10.57
2023-05-06T01:00:26.328Z,10.82
2023-05-06T01:02:53.339Z,11.77
2023-05-06T01:05:22.285Z,9.98
2023-05-06T01:07:49.338Z,11.50
2023-05-06T01:10:18.929Z,11.60
2023-05-06T01:12:53.972Z,10.45
2023-05-06T01:15:26.027Z,10.38
2023-05-06T01:17:57.403Z,10.30
2023-05-06T01:20:25.271Z,11.50
2023-05-06T01:22:52.395Z,11.77
2023-05-06T01:25:20.557Z,10.85
2023-05-06T01:27:48.178Z,10.63
2023-05-06T01:30:16.539Z,10.90
2023-05-06T01:32:50.411Z,12.02
2023-05-06T01:35:21.007Z,10.95
2023-05-06T01:38:06.371Z,11.98
2023-05-06T01:40:33.785Z,10.88
2023-05-06T01:43:02.400Z,10.77
2023-05-06T01:45:30.648Z,10.45
2023-05-06T01:47:57.847Z,11.07
2023-05-06T01:50:31.590Z,10.02
2023-05-06T01:53:02.200Z,9.93
2023-05-06T01:55:29.427Z,12.20
2023-05-06T01:57:59.522Z,11.93
2023-05-06T02:00:26.723Z,11.98
2023-05-06T02:02:54.123Z,12.43
2023-05-06T02:05:21.676Z,12.00
2023-05-06T02:07:56.505Z,12.40
2023-05-06T02:10:23.448Z,12.48
2023-05-06T02:12:57.289Z,12.50
2023-05-06T02:15:26.454Z,12.60
2023-05-06T02:17:53.315Z,12.90
2023-05-06T02:20:20.474Z,13.10
2023-05-06T02:22:48.602Z,13.18
2023-05-06T02:25:15.903Z,12.15
2023-05-06T02:27:45.230Z,12.25
2023-05-06T02:30:12.348Z,12.52
2023-05-06T02:32:39.145Z,12.02
2023-05-06T02:35:09.473Z,12.63
2023-05-06T02:37:37.990Z,12.77
2023-05-06T02:40:06.824Z,13.60
2023-05-06T02:42:35.219Z,11.52
2023-05-06T02:45:02.882Z,12.60
2023-05-06T02:47:37.232Z,13.27
2023-05-06T02:50:04.719Z,14.05
2023-05-06T02:52:33.330Z,13.20
2023-05-06T02:55:11.351Z,12.80
2023-05-06T02:57:39.071Z,12.35
2023-05-06T03:00:06.757Z,12.52
2023-05-06T03:02:38.210Z,12.80
2023-05-06T03:05:05.808Z,12.65
2023-05-06T03:07:32.759Z,12.65
2023-05-06T03:09:59.811Z,12.52
2023-05-06T03:12:29.349Z,13.23
2023-05-06T03:15:00.494Z,13.70
2023-05-06T03:17:28.087Z,12.18
2023-05-06T03:19:56.150Z,14.27
2023-05-06T03:22:30.793Z,13.75
2023-05-06T03:24:58.175Z,13.52
2023-05-06T03:27:27.430Z,14.13
2023-05-06T03:29:59.309Z,14.30
2023-05-06T03:32:29.924Z,12.82
2023-05-06T03:35:11.730Z,13.32
2023-05-06T03:37:44.932Z,14.00
2023-05-06T03:40:12.608Z,12.23
2023-05-06T03:42:39.610Z,14.55
2023-05-06T03:45:07.439Z,12.70
2023-05-06T03:47:37.417Z,14.73
2023-05-06T03:50:07.356Z,12.82
2023-05-06T03:52:37.297Z,13.35
2023-05-06T03:55:05.137Z,14.02
2023-05-06T03:57:36.910Z,13.48
2023-05-06T04:00:05.504Z,11.65
2023-05-06T04:02:43.668Z,14.18
2023-05-06T04:05:18.266Z,12.87
2023-05-06T04:07:45.937Z,14.50
2023-05-06T04:10:12.997Z,14.38
2023-05-06T04:12:47.436Z,12.48
2023-05-06T04:15:19.080Z,14.32
2023-05-06T04:17:45.952Z,13.77
2023-05-06T04:20:14.600Z,14.68
2023-05-06T04:22:41.566Z,14.23
2023-05-06T04:25:09.364Z,14.05
2023-05-06T04:27:37.973Z,13.15
2023-05-06T04:30:08.651Z,12.10
2023-05-06T04:32:38.912Z,12.68
2023-05-06T04:35:07.610Z,14.18
2023-05-06T04:37:40.200Z,14.13
2023-05-06T04:40:18.039Z,12.48
2023-05-06T04:42:47.902Z,11.50
2023-05-06T04:45:20.545Z,12.52
2023-05-06T04:47:52.846Z,12.68
2023-05-06T04:50:20.368Z,11.63
2023-05-06T04:52:48.290Z,13.00
2023-05-06T04:55:17.468Z,13.68
2023-05-06T04:57:48.622Z,13.32
2023-05-06T05:00:16.522Z,13.38
2023-05-06T05:02:43.888Z,17.77
2023-05-06T05:05:15.248Z,12.88
2023-05-06T05:07:44.842Z,12.15
2023-05-06T05:10:12.030Z,12.50
2023-05-06T05:12:39.274Z,12.30
2023-05-06T05:15:07.344Z,12.80
2023-05-06T05:22:38.684Z,10.77
2023-05-06T05:27:35.538Z,11.48
2023-05-06T05:30:02.728Z,12.82
2023-05-06T05:32:38.040Z,12.45
2023-05-06T05:35:05.329Z,12.27
2023-05-06T05:37:33.464Z,12.13
2023-05-06T05:40:01.061Z,11.82
2023-05-06T05:42:28.260Z,11.80
2023-05-06T05:44:57.411Z,11.50
2023-05-06T05:47:27.448Z,12.07
2023-05-06T05:49:55.029Z,11.93
2023-05-06T05:52:23.959Z,11.15
2023-05-06T05:54:52.860Z,11.88
2023-05-06T05:57:19.874Z,11.60
2023-05-06T05:59:47.120Z,11.38
2023-05-06T06:02:13.932Z,11.70
2023-05-06T06:04:41.239Z,11.15
2023-05-06T06:07:08.333Z,11.93
2023-05-06T06:09:39.251Z,11.00
2023-05-06T06:12:06.284Z,12.20
2023-05-06T06:14:35.662Z,11.68
2023-05-06T06:17:02.784Z,11.50
2023-05-06T06:19:30.263Z,12.68
2023-05-06T06:21:57.524Z,12.13
2023-05-06T06:24:24.899Z,12.00
2023-05-06T06:26:51.847Z,11.13
2023-05-06T06:29:19.429Z,10.98
2023-05-06T06:31:47.038Z,11.32
2023-05-06T06:34:13.949Z,10.35
2023-05-06T06:36:45.055Z,11.23
2023-05-06T06:39:12.742Z,12.52
2023-05-06T06:41:39.671Z,11.38
2023-05-06T06:44:06.540Z,11.55
2023-05-06T06:46:34.047Z,12.40
2023-05-06T06:49:01.886Z,11.85
2023-05-06T06:51:28.877Z,12.43
2023-05-06T06:53:56.344Z,12.23
2023-05-06T06:56:23.577Z,12.40
2023-05-06T06:58:53.025Z,12.65
2023-05-06T07:01:23.956Z,13.15
2023-05-06T07:03:53.070Z,11.80
2023-05-06T07:06:20.565Z,12.48
2023-05-06T07:08:47.511Z,11.30
2023-05-06T07:11:15.130Z,11.95
2023-05-06T07:13:42.784Z,12.48
2023-05-06T07:16:10.673Z,11.40
2023-05-06T07:18:37.747Z,11.98
2023-05-06T07:21:04.863Z,12.65
2023-05-06T07:23:32.321Z,12.20
2023-05-06T07:25:59.667Z,11.50
2023-05-06T07:28:26.648Z,11.57
2023-05-06T07:30:54.673Z,12.43
2023-05-06T07:33:21.693Z,12.00
2023-05-06T07:35:48.608Z,12.40
2023-05-06T07:38:15.911Z,13.20
2023-05-06T07:40:42.925Z,14.48
2023-05-06T07:43:09.843Z,13.95
2023-05-06T07:45:36.591Z,14.50
2023-05-06T07:48:03.752Z,13.43
2023-05-06T07:50:31.648Z,13.65
2023-05-06T07:52:58.546Z,13.85
2023-05-06T07:55:26.098Z,13.65
2023-05-06T07:57:53.033Z,14.30
2023-05-06T08:00:19.937Z,13.30
2023-05-06T08:02:48.677Z,13.40
2023-05-06T08:05:16.247Z,14.32
2023-05-06T08:07:43.204Z,16.27
2023-05-06T08:10:10.652Z,14.90
2023-05-06T08:12:38.263Z,14.45
2023-05-06T08:15:05.481Z,13.52
2023-05-06T08:17:34.625Z,14.68
2023-05-06T08:20:03.021Z,14.00
2023-05-06T08:22:31.916Z,13.55
2023-05-06T08:25:01.113Z,14.63
2023-05-06T08:27:27.860Z,15.02
2023-05-06T08:29:54.758Z,14.43
2023-05-06T08:32:21.668Z,14.57
2023-05-06T08:34:48.739Z,15.80
2023-05-06T08:37:15.848Z,15.25
2023-05-06T08:39:43.079Z,14.50
2023-05-06T08:42:20.509Z,14.70
2023-05-06T08:44:47.808Z,14.15
2023-05-06T08:47:14.702Z,15.15
2023-05-06T08:49:42.069Z,14.93
2023-05-06T08:52:09.259Z,15.23
2023-05-06T08:54:37.573Z,13.90
2023-05-06T08:57:10.318Z,13.32
2023-05-06T08:59:38.576Z,13.80
2023-05-06T09:02:05.362Z,13.93
2023-05-06T09:04:32.370Z,12.70
2023-05-06T09:06:59.577Z,12.35
2023-05-06T09:09:26.507Z,12.35
2023-05-06T09:11:57.837Z,11.50
2023-05-06T09:14:25.256Z,11.07
2023-05-06T09:16:53.202Z,11.38
2023-05-06T09:19:21.531Z,11.65
2023-05-06T09:21:49.659Z,10.55
2023-05-06T09:24:17.016Z,9.93
2023-05-06T09:26:44.988Z,10.30
2023-05-06T09:29:12.087Z,11.30
2023-05-06T09:31:43.294Z,9.73
2023-05-06T09:34:10.729Z,8.45
2023-05-06T09:36:38.618Z,10.30
2023-05-06T09:39:05.665Z,9.75
2023-05-06T09:41:32.660Z,10.82
2023-05-06T09:43:59.749Z,9.30
2023-05-06T09:46:28.115Z,8.75
2023-05-06T09:48:56.385Z,10.00
2023-05-06T09:51:23.989Z,12.10
2023-05-06T09:53:51.356Z,11.93
2023-05-06T09:56:20.547Z,10.00
2023-05-06T09:58:47.619Z,9.95
2023-05-06T10:01:32.717Z,10.65
2023-05-06T10:04:05.483Z,9.25
2023-05-06T10:06:35.555Z,10.27
2023-05-06T10:09:02.528Z,9.43
2023-05-06T10:11:31.215Z,9.32
2023-05-06T10:14:00.017Z,9.57
2023-05-06T10:16:27.449Z,8.77
2023-05-06T10:18:55.487Z,8.65
2023-05-06T10:21:25.217Z,8.20
2023-05-06T10:23:57.254Z,8.80
2023-05-06T10:26:26.114Z,7.88
2023-05-06T10:28:53.560Z,8.10
2023-05-06T10:31:31.624Z,8.82
2023-05-06T10:34:00.872Z,7.97
2023-05-06T10:36:29.392Z,8.80
2023-05-06T10:39:01.021Z,7.50
2023-05-06T10:41:29.186Z,8.10
2023-05-06T10:43:57.178Z,7.18
2023-05-06T10:46:26.628Z,7.82
2023-05-06T10:49:11.163Z,6.75
2023-05-06T10:51:42.810Z,7.57
2023-05-06T10:54:10.918Z,7.25
2023-05-06T10:56:38.977Z,7.22
2023-05-06T10:59:09.910Z,7.00
2023-05-06T11:01:37.708Z,6.45
2023-05-06T11:04:17.751Z,6.70
2023-05-06T11:06:46.714Z,6.78
2023-05-06T11:09:20.620Z,7.00
2023-05-06T11:12:04.768Z,6.50
2023-05-06T11:14:38.786Z,6.07
2023-05-06T11:17:06.905Z,5.90
2023-05-06T11:19:34.851Z,6.05
2023-05-06T11:22:02.820Z,5.53
2023-05-06T11:24:30.898Z,5.50
2023-05-06T11:27:01.323Z,6.47
2023-05-06T11:29:28.335Z,5.68
2023-05-06T11:31:55.309Z,5.90
2023-05-06T11:34:23.474Z,5.65
2023-05-06T11:36:53.435Z,5.53
2023-05-06T11:39:21.215Z,5.70
2023-05-06T11:41:48.093Z,5.85
2023-05-06T11:44:23.964Z,5.82
2023-05-06T11:46:51.335Z,5.50
2023-05-06T11:49:18.147Z,5.47
2023-05-06T11:51:44.969Z,6.00
2023-05-06T11:54:12.096Z,5.75
2023-05-06T11:56:46.074Z,6.07
2023-05-06T11:59:13.107Z,6.18
2023-05-06T12:01:43.575Z,5.93
2023-05-06T12:04:11.469Z,5.88
2023-05-06T12:06:38.970Z,6.97
2023-05-06T12:09:06.794Z,6.70
2023-05-06T12:11:34.918Z,5.93
2023-05-06T12:14:07.314Z,7.15
2023-05-06T12:16:35.336Z,7.05
2023-05-06T12:19:02.491Z,6.72
2023-05-06T12:21:29.829Z,7.00
2023-05-06T12:23:57.981Z,6.88
2023-05-06T12:26:27.253Z,6.70
2023-05-06T12:29:05.897Z,6.13
2023-05-06T12:31:32.899Z,6.53
2023-05-06T12:34:01.260Z,4.80
2023-05-06T12:36:28.482Z,4.28
2023-05-06T12:38:56.681Z,4.22
2023-05-06T12:41:25.012Z,3.58
2023-05-06T12:43:55.238Z,3.55
2023-05-06T12:46:32.386Z,2.50
2023-05-06T12:49:02.800Z,2.60
2023-05-06T12:51:31.141Z,2.72
2023-05-06T12:53:58.053Z,2.80
2023-05-06T12:56:25.171Z,2.45
2023-05-06T12:59:01.819Z,2.40
2023-05-06T13:01:28.720Z,2.10
2023-05-06T13:03:56.528Z,2.10
2023-05-06T13:06:23.307Z,2.13
2023-05-06T13:08:50.175Z,1.42
2023-05-06T13:11:22.201Z,1.92
2023-05-06T13:13:49.098Z,1.50
2023-05-06T13:16:21.458Z,1.65
2023-05-06T13:18:52.077Z,1.58
2023-05-06T13:21:19.658Z,1.65
2023-05-06T13:23:47.956Z,1.33
2023-05-06T13:26:16.971Z,1.30
2023-05-06T13:28:44.388Z,1.63
2023-05-06T13:31:11.471Z,1.48
2023-05-06T13:33:38.531Z,1.50
2023-05-06T13:36:06.097Z,1.45
2023-05-06T13:38:33.496Z,1.38
2023-05-06T13:41:00.401Z,1.60
2023-05-06T13:43:27.235Z,1.80
2023-05-06T13:45:54.053Z,1.50
2023-05-06T13:48:20.879Z,1.30
2023-05-06T13:50:47.876Z,1.52
2023-05-06T13:53:14.820Z,1.63
2023-05-06T13:55:42.805Z,1.88
2023-05-06T13:58:09.714Z,1.23
2023-05-06T14:00:36.607Z,1.60
2023-05-06T14:03:03.870Z,1.30
2023-05-06T14:05:30.828Z,1.45
2023-05-06T14:07:57.654Z,1.55
2023-05-06T14:10:24.518Z,1.40
2023-05-06T14:12:51.434Z,1.17
2023-05-06T14:15:18.492Z,1.30
2023-05-06T14:17:45.714Z,1.40
2023-05-06T14:20:12.655Z,1.45
2023-05-06T14:22:40.434Z,1.65
2023-05-06T14:25:07.830Z,1.58
2023-05-06T14:27:35.468Z,2.00
2023-05-06T14:30:08.260Z,2.00
2023-05-06T14:32:40.972Z,2.25
2023-05-06T14:35:09.575Z,2.13
2023-05-06T14:37:37.830Z,1.92
2023-05-06T14:40:05.423Z,1.65
2023-05-06T14:42:36.713Z,1.92
2023-05-06T14:45:04.122Z,1.67
2023-05-06T14:47:41.365Z,1.27
2023-05-06T14:50:12.011Z,1.70
2023-05-06T14:52:39.718Z,1.65
2023-05-06T14:55:07.975Z,1.80
2023-05-06T14:57:35.569Z,2.00
2023-05-06T15:00:05.198Z,1.73
2023-05-06T15:02:34.062Z,1.85
2023-05-06T15:05:04.082Z,1.58
2023-05-06T15:07:33.195Z,2.10
2023-05-06T15:10:00.298Z,1.50
2023-05-06T15:12:27.626Z,2.08
2023-05-06T15:14:54.590Z,2.05
2023-05-06T15:17:21.589Z,1.73
2023-05-06T15:19:48.506Z,1.80
2023-05-06T15:22:15.894Z,1.65
2023-05-06T15:24:44.572Z,1.70
2023-05-06T15:27:12.165Z,1.58
2023-05-06T15:29:42.000Z,1.85
2023-05-06T15:32:09.221Z,1.73
2023-05-06T15:34:36.353Z,1.73
2023-05-06T15:37:03.254Z,2.03
2023-05-06T15:39:34.632Z,1.77
2023-05-06T15:42:01.701Z,1.42
2023-05-06T15:44:28.652Z,1.52
2023-05-06T15:46:55.454Z,1.30
2023-05-06T15:51:52.451Z,1.20
2023-05-06T15:54:19.562Z,1.40
2023-05-06T15:56:46.819Z,1.80
2023-05-06T15:59:13.806Z,1.55
2023-05-06T16:02:24.420Z,1.70
2023-05-06T16:04:28.815Z,1.52
2023-05-06T16:06:56.302Z,1.45
2023-05-06T16:09:23.514Z,1.95
2023-05-06T16:11:51.013Z,1.55
2023-05-06T16:14:21.167Z,2.13
2023-05-06T16:16:48.314Z,2.17
2023-05-06T16:19:15.723Z,1.90
2023-05-06T16:21:44.617Z,2.35
2023-05-06T16:24:11.508Z,2.55
2023-05-06T16:26:38.866Z,2.35
2023-05-06T16:29:05.798Z,1.88
2023-05-06T16:31:33.544Z,2.28
2023-05-06T16:34:00.949Z,3.03
2023-05-06T16:36:28.722Z,3.55
2023-05-06T16:38:55.713Z,4.43
2023-05-06T16:41:22.609Z,4.63
2023-05-06T16:43:49.778Z,4.60
2023-05-06T16:46:27.106Z,5.40
2023-05-06T16:48:54.336Z,5.43
2023-05-06T16:51:21.434Z,6.68
2023-05-06T16:53:48.721Z,6.65
2023-05-06T16:56:18.438Z,8.60
2023-05-06T16:58:46.607Z,9.25
2023-05-06T17:01:14.788Z,9.73
2023-05-06T17:03:49.438Z,11.48
2023-05-06T17:06:20.407Z,12.60
2023-05-06T17:08:47.644Z,12.10
2023-05-06T17:11:17.159Z,12.68
2023-05-06T17:13:46.201Z,13.63
2023-05-06T17:16:13.226Z,12.68
2023-05-06T17:18:43.263Z,12.68
2023-05-06T17:21:10.749Z,14.02
2023-05-06T17:23:37.566Z,13.43
2023-05-06T17:26:10.557Z,13.93
2023-05-06T17:28:37.806Z,14.35
2023-05-06T17:31:05.868Z,16.05
2023-05-06T17:33:33.868Z,15.88
2023-05-06T17:36:00.750Z,16.05
2023-05-06T17:38:27.617Z,16.35
2023-05-06T17:40:55.145Z,15.40
2023-05-06T17:43:23.202Z,15.55
2023-05-06T17:45:50.113Z,16.23
2023-05-06T17:48:17.052Z,17.02
2023-05-06T17:50:43.886Z,17.38
2023-05-06T17:53:11.340Z,17.13
2023-05-06T17:55:38.310Z,18.17
2023-05-06T17:58:05.170Z,18.27
2023-05-06T18:00:32.208Z,16.95
2023-05-06T18:02:59.674Z,17.52
2023-05-06T18:05:26.800Z,18.50
2023-05-06T18:07:53.856Z,18.52
2023-05-06T18:10:20.740Z,20.88
2023-05-06T18:12:48.071Z,16.98
2023-05-06T18:15:15.018Z,19.63
2023-05-06T18:17:42.159Z,18.40
2023-05-06T18:20:10.254Z,19.10
2023-05-06T18:22:37.115Z,19.92
2023-05-06T18:25:05.470Z,20.00
2023-05-06T18:27:32.685Z,20.67
2023-05-06T18:29:59.540Z,20.45
2023-05-06T18:32:26.979Z,20.75
2023-05-06T18:34:55.258Z,22.05
2023-05-06T18:37:22.263Z,20.25
2023-05-06T18:39:49.826Z,19.73
2023-05-06T18:42:20.405Z,21.75
2023-05-06T18:44:50.230Z,19.00
2023-05-06T18:47:18.434Z,17.80
2023-05-06T18:49:45.635Z,15.65
2023-05-06T18:52:18.299Z,15.70
2023-05-06T18:54:46.609Z,16.17
2023-05-06T18:57:14.603Z,15.18
2023-05-06T18:59:42.220Z,15.32
2023-05-06T19:02:09.201Z,15.10
2023-05-06T19:04:36.265Z,18.45
2023-05-06T19:07:04.100Z,19.33
2023-05-06T19:09:32.919Z,19.67
2023-05-06T19:11:59.852Z,18.67
2023-05-06T19:14:27.091Z,19.13
2023-05-06T19:16:54.183Z,17.83
2023-05-06T19:19:21.099Z,17.70
2023-05-06T19:21:48.021Z,18.30
2023-05-06T19:24:14.810Z,17.58
2023-05-06T19:26:41.658Z,17.48
2023-05-06T19:29:14.731Z,18.13
2023-05-06T19:31:42.153Z,18.23
2023-05-06T19:34:09.105Z,16.92
2023-05-06T19:36:36.517Z,18.02
2023-05-06T19:39:03.658Z,17.00
2023-05-06T19:41:31.003Z,18.35
2023-05-06T19:43:57.817Z,17.52
2023-05-06T19:46:28.372Z,17.95
2023-05-06T19:48:58.716Z,17.58
2023-05-06T19:51:25.709Z,17.30
2023-05-06T19:53:52.656Z,19.77
2023-05-06T19:56:24.728Z,18.58
2023-05-06T19:58:51.794Z,19.45
2023-05-06T20:01:27.766Z,19.83
2023-05-06T20:03:55.240Z,20.95
2023-05-06T20:06:22.318Z,21.17
2023-05-06T20:08:49.339Z,21.58
2023-05-06T20:11:21.247Z,21.83
2023-05-06T20:13:48.672Z,21.98
2023-05-06T20:16:36.567Z,21.85
2023-05-06T20:19:03.678Z,24.65
2023-05-06T20:21:31.549Z,22.77
2023-05-06T20:23:58.380Z,24.20
2023-05-06T20:26:25.465Z,23.38
2023-05-06T20:28:53.325Z,22.02
2023-05-06T20:31:25.411Z,21.98
2023-05-06T20:33:53.585Z,20.38
2023-05-06T20:36:21.469Z,22.00
2023-05-06T20:38:50.453Z,20.92
2023-05-06T20:41:21.834Z,21.95
2023-05-06T20:43:52.915Z,24.33
2023-05-06T20:46:26.860Z,24.23
2023-05-06T20:48:53.728Z,23.38
2023-05-06T20:51:21.158Z,23.80
2023-05-06T20:53:48.226Z,22.55
2023-05-06T20:56:26.121Z,23.23
2023-05-06T20:58:55.147Z,22.08
2023-05-06T21:01:28.947Z,22.45
2023-05-06T21:03:56.332Z,22.35
2023-05-06T21:06:23.324Z,22.08
2023-05-06T21:08:51.874Z,23.13
2023-05-06T21:11:20.523Z,24.92
2023-05-06T21:13:49.563Z,25.55
2023-05-06T21:16:27.699Z,23.35
2023-05-06T21:18:54.906Z,26.77
2023-05-06T21:21:25.250Z,26.33
2023-05-06T21:23:52.171Z,25.80
2023-05-06T21:26:22.654Z,24.95
2023-05-06T21:28:52.082Z,25.20
2023-05-06T21:31:28.096Z,26.60
2023-05-06T21:36:25.119Z,25.60
2023-05-06T21:39:05.605Z,24.90
2023-05-06T21:41:35.379Z,25.42
2023-05-06T21:44:03.008Z,26.73
2023-05-06T21:46:30.017Z,26.50
2023-05-06T21:48:57.141Z,26.67
2023-05-06T21:51:26.588Z,27.65
2023-05-06T21:53:53.558Z,31.58
2023-05-06T21:56:21.666Z,29.45
2023-05-06T21:58:48.872Z,28.85
2023-05-06T22:01:22.090Z,28.80
2023-05-06T22:03:55.802Z,27.60
2023-05-06T22:06:22.848Z,27.88
2023-05-06T22:08:49.618Z,27.83
2023-05-06T22:11:26.907Z,27.15
2023-05-06T22:13:53.821Z,28.73
2023-05-06T22:16:29.703Z,27.05
2023-05-06T22:18:57.055Z,27.65
2023-05-06T22:21:24.148Z,26.80
2023-05-06T22:23:51.215Z,26.38
2023-05-06T22:26:22.817Z,27.02
2023-05-06T22:28:50.155Z,26.90
2023-05-06T22:31:28.108Z,27.35
2023-05-06T22:33:58.085Z,27.67
2023-05-06T22:36:29.410Z,28.08
2023-05-06T22:38:57.374Z,28.88
2023-05-06T22:41:24.288Z,29.50
2023-05-06T22:43:51.276Z,28.92
2023-05-06T22:46:29.877Z,29.73
2023-05-06T22:48:56.955Z,28.92
2023-05-06T22:53:50.989Z,28.15
2023-05-06T22:56:21.337Z,28.40
2023-05-06T22:58:48.078Z,27.80
2023-05-06T23:01:15.349Z,29.38
2023-05-06T23:03:55.594Z,28.45
2023-05-06T23:06:22.975Z,29.70
2023-05-06T23:08:49.752Z,29.40
2023-05-06T23:11:23.166Z,30.35
2023-05-06T23:13:50.050Z,30.70
2023-05-06T23:16:38.059Z,32.22
2023-05-06T23:19:04.846Z,30.45
2023-05-06T23:21:31.785Z,32.47
2023-05-06T23:23:58.664Z,30.98
2023-05-06T23:26:26.599Z,29.58
2023-05-06T23:28:53.560Z,29.58
2023-05-06T23:31:27.856Z,27.17
2023-05-06T23:33:54.696Z,26.63
2023-05-06T23:36:24.163Z,25.83
2023-05-06T23:38:50.995Z,26.30
2023-05-06T23:41:20.625Z,26.27
2023-05-06T23:43:47.726Z,27.13
2023-05-06T23:46:29.268Z,24.80
2023-05-06T23:48:56.117Z,25.77
2023-05-06T23:51:23.078Z,25.73
2023-05-06T23:53:49.898Z,24.48
2023-05-06T23:56:26.283Z,23.98
2023-05-06T23:58:52.995Z,23.25
